Time;durP1;ratioP1;P1;durP2;ratioP2;P2;SDS_P1;SDS_P2;PMS_P1;PMS_P2;Temp;Humidity;BMP_temperature;BMP_pressure;BME280_temperature;BME280_humidity;BME280_pressure;Samples;Min_cycle;Max_cycle;Signal;HPM_P1;HPM_P2
2021/07/10 00:00:50;;;;;;;15.75;5.45;;;;;;;;;;5054139;28;20044;-69
2021/07/10 00:03:16;;;;;;;13.65;5.82;;;;;;;;;;5054358;28;20099;-70
2021/07/10 00:05:43;;;;;;;10.90;5.57;;;;;;;;;;5054228;28;20017;-70
2021/07/10 00:08:09;;;;;;;11.27;6.15;;;;;;;;;;5052881;28;20458;-70
2021/07/10 00:10:36;;;;;;;14.13;5.80;;;;;;;;;;5054212;28;20025;-69
2021/07/10 00:13:02;;;;;;;10.50;5.32;;;;;;;;;;5053637;28;20075;-69
2021/07/10 00:15:28;;;;;;;9.10;5.43;;;;;;;;;;5053714;28;20474;-69
2021/07/10 00:17:54;;;;;;;8.35;5.60;;;;;;;;;;5054335;28;20021;-69
2021/07/10 00:20:22;;;;;;;8.90;5.35;;;;;;;;;;5054033;28;20444;-69
2021/07/10 00:22:48;;;;;;;15.75;5.80;;;;;;;;;;5052677;28;20017;-69
2021/07/10 00:25:16;;;;;;;8.48;5.78;;;;;;;;;;5052657;28;20025;-69
2021/07/10 00:27:43;;;;;;;12.10;5.65;;;;;;;;;;5053891;28;20029;-69
2021/07/10 00:30:10;;;;;;;9.60;5.78;;;;;;;;;;5052448;28;20120;-69
2021/07/10 00:32:37;;;;;;;13.27;6.57;;;;;;;;;;5053817;28;20374;-69
2021/07/10 00:35:06;;;;;;;15.50;6.28;;;;;;;;;;5053787;28;20033;-69
2021/07/10 00:37:33;;;;;;;15.82;7.03;;;;;;;;;;5053698;28;20017;-69
2021/07/10 00:39:59;;;;;;;11.10;6.00;;;;;;;;;;5052333;28;20078;-69
2021/07/10 00:42:25;;;;;;;11.02;6.60;;;;;;;;;;5053347;28;20373;-69
2021/07/10 00:44:51;;;;;;;10.05;7.00;;;;;;;;;;5053645;28;20108;-69
2021/07/10 00:47:18;;;;;;;15.25;6.88;;;;;;;;;;5053201;28;20158;-69
2021/07/10 00:49:44;;;;;;;14.48;7.50;;;;;;;;;;5053373;28;20472;-69
2021/07/10 00:52:11;;;;;;;11.65;7.07;;;;;;;;;;5052119;28;20028;-69
2021/07/10 00:54:37;;;;;;;11.52;7.10;;;;;;;;;;5052151;28;20469;-69
2021/07/10 00:57:05;;;;;;;13.50;7.80;;;;;;;;;;5053061;28;20465;-71
2021/07/10 00:59:32;;;;;;;11.27;7.57;;;;;;;;;;5053324;28;20025;-69
2021/07/10 01:01:59;;;;;;;17.10;8.68;;;;;;;;;;5053391;28;20028;-70
2021/07/10 01:04:25;;;;;;;14.63;7.43;;;;;;;;;;5053285;28;20032;-69
2021/07/10 01:06:51;;;;;;;16.17;8.57;;;;;;;;;;5053233;28;20057;-69
2021/07/10 01:09:18;;;;;;;18.05;8.10;;;;;;;;;;5053110;28;20033;-69
2021/07/10 01:11:45;;;;;;;14.10;8.90;;;;;;;;;;5051813;28;20028;-69
2021/07/10 01:14:11;;;;;;;20.45;9.15;;;;;;;;;;5053143;28;20100;-69
2021/07/10 01:16:38;;;;;;;22.65;9.40;;;;;;;;;;5053085;28;20496;-69
2021/07/10 01:19:04;;;;;;;13.85;8.27;;;;;;;;;;5051744;28;20496;-69
2021/07/10 01:21:30;;;;;;;15.15;8.30;;;;;;;;;;5052727;28;20103;-69
2021/07/10 01:23:57;;;;;;;16.05;9.05;;;;;;;;;;5053034;28;20027;-69
2021/07/10 01:26:23;;;;;;;11.65;9.52;;;;;;;;;;5052758;28;20018;-68
2021/07/10 01:28:49;;;;;;;22.83;10.00;;;;;;;;;;5052905;28;20415;-69
2021/07/10 01:31:16;;;;;;;17.30;10.43;;;;;;;;;;5051627;28;20544;-69
2021/07/10 01:33:43;;;;;;;18.13;9.82;;;;;;;;;;5051538;28;20032;-70
2021/07/10 01:36:09;;;;;;;20.63;10.27;;;;;;;;;;5053098;28;20104;-69
2021/07/10 01:38:35;;;;;;;18.98;11.25;;;;;;;;;;5052841;28;20047;-69
2021/07/10 01:41:01;;;;;;;16.38;11.73;;;;;;;;;;5052860;28;20450;-70
2021/07/10 01:43:27;;;;;;;22.90;12.70;;;;;;;;;;5052857;28;20049;-69
2021/07/10 01:45:54;;;;;;;22.42;12.38;;;;;;;;;;5051534;28;20078;-70
2021/07/10 01:48:21;;;;;;;18.92;12.60;;;;;;;;;;5052564;28;20049;-69
2021/07/10 01:50:47;;;;;;;24.13;14.27;;;;;;;;;;5053031;28;20481;-69
2021/07/10 01:53:15;;;;;;;23.83;14.15;;;;;;;;;;5052797;28;20567;-69
2021/07/10 01:55:41;;;;;;;22.05;14.18;;;;;;;;;;5052767;28;20108;-68
2021/07/10 01:58:07;;;;;;;17.65;13.85;;;;;;;;;;5051408;28;20017;-69
2021/07/10 02:00:36;;;;;;;21.02;15.18;;;;;;;;;;5052656;28;20544;-69
2021/07/10 02:03:02;;;;;;;28.17;15.73;;;;;;;;;;5052902;28;20163;-69
2021/07/10 02:05:30;;;;;;;23.88;16.15;;;;;;;;;;5052769;28;20083;-69
2021/07/10 02:07:58;;;;;;;22.95;16.20;;;;;;;;;;5051026;28;20025;-68
2021/07/10 02:10:25;;;;;;;23.88;16.98;;;;;;;;;;5052776;28;20079;-69
2021/07/10 02:12:53;;;;;;;21.23;16.65;;;;;;;;;;5051238;28;20394;-69
2021/07/10 02:15:19;;;;;;;25.15;16.88;;;;;;;;;;5051337;28;20021;-69
2021/07/10 02:17:45;;;;;;;24.77;17.38;;;;;;;;;;5052512;28;20025;-69
2021/07/10 02:20:13;;;;;;;21.35;17.27;;;;;;;;;;5052479;28;20033;-69
2021/07/10 02:22:39;;;;;;;24.92;17.90;;;;;;;;;;5052514;28;20025;-68
2021/07/10 02:25:07;;;;;;;29.05;18.10;;;;;;;;;;5052465;28;20063;-68
2021/07/10 02:27:33;;;;;;;27.92;18.73;;;;;;;;;;5051127;28;20048;-68
2021/07/10 02:29:59;;;;;;;35.35;19.67;;;;;;;;;;5052297;28;20035;-68
2021/07/10 02:32:26;;;;;;;30.20;19.80;;;;;;;;;;5052356;28;20029;-67
2021/07/10 02:34:52;;;;;;;25.73;18.88;;;;;;;;;;5052406;28;20108;-67
2021/07/10 02:37:18;;;;;;;26.65;20.50;;;;;;;;;;5052474;28;20108;-68
2021/07/10 02:39:46;;;;;;;30.65;20.10;;;;;;;;;;5054407;28;20135;-67
2021/07/10 02:42:12;;;;;;;27.95;20.48;;;;;;;;;;5054568;28;20029;-67
2021/07/10 02:44:38;;;;;;;26.45;20.55;;;;;;;;;;5055900;28;20104;-67
2021/07/10 02:47:04;;;;;;;29.83;20.98;;;;;;;;;;5054189;28;20112;-67
2021/07/10 02:49:31;;;;;;;34.20;21.48;;;;;;;;;;5055717;28;20041;-67
2021/07/10 02:51:57;;;;;;;25.23;21.40;;;;;;;;;;5055760;28;20112;-67
2021/07/10 02:54:23;;;;;;;34.03;19.70;;;;;;;;;;5055731;28;20021;-68
2021/07/10 02:56:49;;;;;;;28.83;19.67;;;;;;;;;;5055608;28;20107;-67
2021/07/10 02:59:15;;;;;;;25.95;21.27;;;;;;;;;;5055582;28;20118;-67
2021/07/10 03:01:41;;;;;;;26.30;21.17;;;;;;;;;;5055270;28;20017;-69
2021/07/10 03:04:08;;;;;;;25.80;19.95;;;;;;;;;;5055494;28;20159;-69
2021/07/10 03:06:34;;;;;;;26.75;19.33;;;;;;;;;;5054187;28;20028;-68
2021/07/10 03:09:00;;;;;;;25.30;18.67;;;;;;;;;;5053770;28;20021;-69
2021/07/10 03:11:26;;;;;;;28.55;19.52;;;;;;;;;;5055351;28;20632;-69
2021/07/10 03:13:52;;;;;;;27.80;17.75;;;;;;;;;;5054038;28;20450;-68
2021/07/10 03:16:19;;;;;;;29.23;18.08;;;;;;;;;;5055291;28;20108;-69
2021/07/10 03:18:45;;;;;;;25.50;17.90;;;;;;;;;;5055242;28;20029;-70
2021/07/10 03:21:11;;;;;;;26.63;17.80;;;;;;;;;;5055183;28;20469;-69
2021/07/10 03:23:38;;;;;;;23.70;18.20;;;;;;;;;;5055129;28;20029;-70
2021/07/10 03:26:04;;;;;;;21.77;18.17;;;;;;;;;;5055141;28;20035;-70
2021/07/10 03:28:30;;;;;;;27.98;17.83;;;;;;;;;;5054995;28;20098;-69
2021/07/10 03:30:56;;;;;;;26.58;17.38;;;;;;;;;;5055245;28;20529;-69
2021/07/10 03:33:23;;;;;;;30.92;16.85;;;;;;;;;;5055207;28;20163;-69
2021/07/10 03:35:49;;;;;;;28.75;16.42;;;;;;;;;;5053669;28;20155;-69
2021/07/10 03:38:16;;;;;;;23.65;15.30;;;;;;;;;;5054553;28;20549;-68
2021/07/10 03:40:42;;;;;;;20.92;15.52;;;;;;;;;;5054751;28;20029;-71
2021/07/10 03:43:08;;;;;;;18.92;14.85;;;;;;;;;;5054772;28;20100;-69
2021/07/10 03:45:35;;;;;;;23.85;14.70;;;;;;;;;;5054784;28;20025;-70
2021/07/10 03:48:01;;;;;;;18.35;14.48;;;;;;;;;;5052747;28;20049;-69
2021/07/10 03:50:27;;;;;;;20.02;14.10;;;;;;;;;;5054542;28;20040;-71
2021/07/10 03:52:53;;;;;;;21.15;13.70;;;;;;;;;;5054572;28;20024;-69
2021/07/10 03:55:20;;;;;;;18.88;12.60;;;;;;;;;;5053296;28;20496;-70
2021/07/10 03:57:46;;;;;;;18.10;12.40;;;;;;;;;;5054461;28;20025;-70
2021/07/10 04:00:17;;;;;;;16.48;11.80;;;;;;;;;;5053107;28;20059;-69
2021/07/10 04:02:43;;;;;;;28.00;13.35;;;;;;;;;;5054400;28;20033;-68
2021/07/10 04:05:10;;;;;;;22.05;12.25;;;;;;;;;;5053122;28;20037;-67
2021/07/10 04:07:37;;;;;;;19.20;12.77;;;;;;;;;;5054322;28;20517;-69
2021/07/10 04:10:05;;;;;;;16.30;11.52;;;;;;;;;;5054233;28;20123;-70
2021/07/10 04:12:31;;;;;;;14.43;11.45;;;;;;;;;;5054180;28;20104;-67
2021/07/10 04:15:00;;;;;;;18.73;12.15;;;;;;;;;;5054146;28;20070;-68
2021/07/10 04:17:31;;;;;;;17.40;11.30;;;;;;;;;;5052750;28;20064;-71
2021/07/10 04:19:57;;;;;;;16.17;10.88;;;;;;;;;;5054177;28;20048;-67
2021/07/10 04:22:23;;;;;;;13.13;11.30;;;;;;;;;;5054235;28;20473;-65
2021/07/10 04:24:50;;;;;;;17.80;12.00;;;;;;;;;;5053679;28;20053;-67
2021/07/10 04:27:17;;;;;;;13.05;10.32;;;;;;;;;;5053916;28;20013;-68
2021/07/10 04:29:45;;;;;;;17.15;10.45;;;;;;;;;;5053718;28;20473;-69
2021/07/10 04:32:12;;;;;;;16.77;10.90;;;;;;;;;;5053794;28;20028;-68
2021/07/10 04:34:39;;;;;;;15.30;10.88;;;;;;;;;;5053719;28;20028;-67
2021/07/10 04:37:05;;;;;;;14.73;10.13;;;;;;;;;;5053736;28;20025;-66
2021/07/10 04:39:31;;;;;;;13.57;9.35;;;;;;;;;;5053666;28;20485;-69
2021/07/10 04:41:57;;;;;;;13.05;10.27;;;;;;;;;;5053569;28;20021;-70
2021/07/10 04:44:23;;;;;;;25.90;12.40;;;;;;;;;;5053551;28;20013;-69
2021/07/10 04:46:50;;;;;;;15.95;10.77;;;;;;;;;;5052098;28;20056;-69
2021/07/10 04:49:16;;;;;;;18.25;10.75;;;;;;;;;;5053343;28;20036;-69
2021/07/10 04:51:42;;;;;;;16.35;12.18;;;;;;;;;;5053402;28;20468;-66
2021/07/10 04:54:08;;;;;;;21.48;12.80;;;;;;;;;;5053374;28;20021;-67
2021/07/10 04:56:34;;;;;;;15.27;11.52;;;;;;;;;;5052076;28;20468;-68
2021/07/10 04:59:00;;;;;;;15.13;10.85;;;;;;;;;;5053402;28;20043;-67
2021/07/10 05:01:26;;;;;;;14.70;10.85;;;;;;;;;;5052936;28;20052;-67
2021/07/10 05:03:53;;;;;;;13.05;11.15;;;;;;;;;;5053257;28;20021;-69
2021/07/10 05:06:19;;;;;;;13.98;10.82;;;;;;;;;;5053223;28;20044;-70
2021/07/10 05:08:45;;;;;;;15.77;11.20;;;;;;;;;;5053077;28;20091;-69
2021/07/10 05:11:11;;;;;;;14.35;11.65;;;;;;;;;;5053075;28;20021;-69
2021/07/10 05:13:37;;;;;;;18.23;10.85;;;;;;;;;;5053051;28;20021;-68
2021/07/10 05:16:04;;;;;;;14.27;11.32;;;;;;;;;;5053126;28;20420;-68
2021/07/10 05:18:30;;;;;;;16.33;11.20;;;;;;;;;;5053260;28;20082;-68
2021/07/10 05:20:56;;;;;;;12.93;11.13;;;;;;;;;;5052933;28;20025;-70
2021/07/10 05:23:22;;;;;;;17.30;10.55;;;;;;;;;;5051656;28;20098;-68
2021/07/10 05:25:48;;;;;;;12.20;10.55;;;;;;;;;;5051593;28;20021;-69
2021/07/10 05:28:18;;;;;;;15.43;10.02;;;;;;;;;;5053281;28;20030;-69
2021/07/10 05:30:47;;;;;;;13.13;11.10;;;;;;;;;;5051542;28;20124;-69
2021/07/10 05:33:14;;;;;;;15.98;10.35;;;;;;;;;;5051189;28;20032;-71
2021/07/10 05:35:41;;;;;;;14.13;9.90;;;;;;;;;;5053259;28;20028;-69
2021/07/10 05:38:07;;;;;;;15.57;10.18;;;;;;;;;;5051504;28;20028;-69
2021/07/10 05:40:33;;;;;;;18.67;10.93;;;;;;;;;;5052457;28;20083;-69
2021/07/10 05:43:00;;;;;;;13.73;9.55;;;;;;;;;;5053064;28;20025;-69
2021/07/10 05:45:26;;;;;;;16.17;8.82;;;;;;;;;;5052745;28;20025;-69
2021/07/10 05:47:52;;;;;;;13.52;9.18;;;;;;;;;;5052421;28;20091;-69
2021/07/10 05:50:19;;;;;;;14.13;8.60;;;;;;;;;;5051133;28;20477;-70
2021/07/10 05:52:45;;;;;;;14.25;8.45;;;;;;;;;;5051057;28;20064;-70
2021/07/10 05:55:11;;;;;;;10.82;8.90;;;;;;;;;;5052610;28;20108;-67
2021/07/10 05:57:37;;;;;;;9.48;8.45;;;;;;;;;;5051446;28;20467;-69
2021/07/10 06:00:06;;;;;;;11.82;8.88;;;;;;;;;;5052664;28;20033;-70
2021/07/10 06:02:32;;;;;;;10.95;8.40;;;;;;;;;;5052703;28;20473;-68
2021/07/10 06:04:59;;;;;;;11.75;7.85;;;;;;;;;;5051346;28;20029;-69
2021/07/10 06:07:25;;;;;;;10.52;8.05;;;;;;;;;;5051377;28;20021;-70
2021/07/10 06:09:51;;;;;;;9.07;8.18;;;;;;;;;;5052526;28;20115;-68
2021/07/10 06:12:17;;;;;;;11.98;8.25;;;;;;;;;;5052749;28;20025;-69
2021/07/10 06:14:43;;;;;;;13.10;8.10;;;;;;;;;;5056646;28;20507;-68
2021/07/10 06:17:10;;;;;;;17.10;8.02;;;;;;;;;;5056419;28;20032;-69
2021/07/10 06:19:36;;;;;;;16.98;7.18;;;;;;;;;;5054932;28;20469;-67
2021/07/10 06:22:02;;;;;;;10.18;6.47;;;;;;;;;;5055006;28;20072;-67
2021/07/10 06:24:28;;;;;;;20.80;9.48;;;;;;;;;;5056273;28;20028;-69
2021/07/10 06:26:55;;;;;;;9.48;8.48;;;;;;;;;;5056243;28;20051;-69
2021/07/10 06:29:21;;;;;;;9.95;6.95;;;;;;;;;;5054859;28;20036;-69
2021/07/10 06:31:47;;;;;;;13.88;8.23;;;;;;;;;;5054796;28;20021;-67
2021/07/10 06:34:13;;;;;;;10.93;7.00;;;;;;;;;;5044170;28;20028;-66
2021/07/10 06:36:40;;;;;;;15.27;7.63;;;;;;;;;;5035740;28;20065;-67
2021/07/10 06:39:06;;;;;;;9.20;7.63;;;;;;;;;;5034738;28;20037;-66
2021/07/10 06:41:33;;;;;;;14.95;8.23;;;;;;;;;;5034679;28;20034;-66
2021/07/10 06:43:59;;;;;;;12.82;7.80;;;;;;;;;;5035948;28;20088;-69
2021/07/10 06:46:26;;;;;;;12.30;8.25;;;;;;;;;;5035937;28;20018;-68
2021/07/10 06:48:52;;;;;;;14.43;8.13;;;;;;;;;;5034172;28;20448;-67
2021/07/10 06:51:19;;;;;;;13.95;7.93;;;;;;;;;;5035753;28;20029;-66
2021/07/10 06:53:45;;;;;;;10.75;7.50;;;;;;;;;;5035779;28;20087;-68
2021/07/10 06:56:11;;;;;;;9.23;6.72;;;;;;;;;;5035763;28;20108;-67
2021/07/10 06:58:37;;;;;;;11.43;7.00;;;;;;;;;;5035614;28;20037;-69
2021/07/10 07:01:04;;;;;;;11.35;6.70;;;;;;;;;;5034330;28;20545;-68
2021/07/10 07:03:31;;;;;;;9.32;5.82;;;;;;;;;;5035620;28;20100;-67
2021/07/10 07:05:58;;;;;;;8.90;5.68;;;;;;;;;;5035833;28;20461;-69
2021/07/10 07:08:24;;;;;;;8.15;5.93;;;;;;;;;;5034123;28;20064;-68
2021/07/10 07:10:50;;;;;;;11.43;6.68;;;;;;;;;;5033872;28;20022;-68
2021/07/10 07:13:17;;;;;;;6.55;5.72;;;;;;;;;;5035640;28;20108;-70
2021/07/10 07:15:43;;;;;;;8.27;5.70;;;;;;;;;;5033850;28;20803;-70
2021/07/10 07:18:10;;;;;;;7.20;5.45;;;;;;;;;;5035383;28;20030;-70
2021/07/10 07:20:36;;;;;;;11.88;5.57;;;;;;;;;;5033955;28;20030;-69
2021/07/10 07:23:03;;;;;;;11.23;6.10;;;;;;;;;;5034851;28;20083;-68
2021/07/10 07:25:30;;;;;;;12.75;5.32;;;;;;;;;;5034752;28;20112;-69
2021/07/10 07:27:56;;;;;;;11.10;6.00;;;;;;;;;;5033910;28;20025;-69
2021/07/10 07:30:22;;;;;;;7.97;5.78;;;;;;;;;;5034653;28;20485;-70
2021/07/10 07:32:49;;;;;;;12.50;5.93;;;;;;;;;;5034992;28;20025;-70
2021/07/10 07:35:16;;;;;;;11.57;6.90;;;;;;;;;;5034968;28;20076;-70
2021/07/10 07:37:42;;;;;;;11.68;6.20;;;;;;;;;;5035016;28;20029;-69
2021/07/10 07:40:10;;;;;;;13.55;7.47;;;;;;;;;;5033322;28;20032;-69
2021/07/10 07:42:37;;;;;;;8.45;6.60;;;;;;;;;;5034860;28;20051;-69
2021/07/10 07:45:05;;;;;;;9.93;7.07;;;;;;;;;;5034825;28;20109;-70
2021/07/10 07:47:32;;;;;;;15.90;7.90;;;;;;;;;;5033180;28;20064;-67
2021/07/10 07:49:58;;;;;;;10.05;6.22;;;;;;;;;;5034016;28;20477;-68
2021/07/10 07:52:24;;;;;;;10.50;6.32;;;;;;;;;;5034190;28;20496;-70
2021/07/10 07:54:51;;;;;;;10.25;6.13;;;;;;;;;;5036694;28;20024;-69
2021/07/10 07:57:17;;;;;;;8.05;6.40;;;;;;;;;;5042212;28;20021;-71
2021/07/10 07:59:43;;;;;;;9.85;6.55;;;;;;;;;;5034479;28;20018;-69
2021/07/10 08:02:10;;;;;;;7.57;6.68;;;;;;;;;;5033471;28;20021;-70
2021/07/10 08:04:37;;;;;;;9.80;6.75;;;;;;;;;;5033081;28;20022;-70
2021/07/10 08:07:04;;;;;;;12.25;6.93;;;;;;;;;;5033300;28;20477;-69
2021/07/10 08:09:30;;;;;;;8.95;6.32;;;;;;;;;;5051748;28;20488;-70
2021/07/10 08:11:57;;;;;;;9.30;6.80;;;;;;;;;;5054120;28;20025;-68
2021/07/10 08:14:24;;;;;;;9.45;6.47;;;;;;;;;;5053696;28;20059;-70
2021/07/10 08:16:50;;;;;;;9.35;6.13;;;;;;;;;;5054196;28;20419;-69
2021/07/10 08:19:18;;;;;;;7.22;6.53;;;;;;;;;;5054100;28;20078;-70
2021/07/10 08:21:45;;;;;;;9.30;6.05;;;;;;;;;;5054651;28;20029;-68
2021/07/10 08:24:12;;;;;;;9.05;5.88;;;;;;;;;;5054467;28;20021;-68
2021/07/10 08:26:38;;;;;;;15.07;6.18;;;;;;;;;;5054420;28;20036;-70
2021/07/10 08:29:05;;;;;;;8.95;5.80;;;;;;;;;;5054671;28;20032;-70
2021/07/10 08:31:33;;;;;;;8.85;5.68;;;;;;;;;;5053203;28;20029;-69
2021/07/10 08:33:59;;;;;;;7.72;5.60;;;;;;;;;;5053995;28;20032;-68
2021/07/10 08:36:25;;;;;;;10.43;5.70;;;;;;;;;;5052127;28;20025;-69
2021/07/10 08:38:52;;;;;;;9.45;5.95;;;;;;;;;;5052417;28;20028;-68
2021/07/10 08:41:19;;;;;;;8.90;5.80;;;;;;;;;;5052237;28;20412;-69
2021/07/10 08:43:45;;;;;;;11.35;6.45;;;;;;;;;;5052324;28;20488;-67
2021/07/10 08:46:13;;;;;;;8.48;6.50;;;;;;;;;;5053519;28;20362;-69
2021/07/10 08:48:39;;;;;;;8.25;5.68;;;;;;;;;;5053512;28;20049;-68
2021/07/10 08:51:06;;;;;;;8.27;5.97;;;;;;;;;;5053405;28;20059;-69
2021/07/10 08:53:33;;;;;;;9.00;5.25;;;;;;;;;;5053387;28;20025;-68
2021/07/10 08:55:59;;;;;;;20.77;6.22;;;;;;;;;;5051945;28;20044;-68
2021/07/10 08:58:26;;;;;;;14.65;5.85;;;;;;;;;;5053569;28;20021;-69
2021/07/10 09:00:52;;;;;;;10.30;5.57;;;;;;;;;;5053264;28;20476;-71
2021/07/10 09:03:19;;;;;;;14.63;5.53;;;;;;;;;;5053174;28;20021;-67
2021/07/10 09:05:46;;;;;;;7.10;5.38;;;;;;;;;;5053186;28;20045;-70
2021/07/10 09:08:12;;;;;;;7.38;5.32;;;;;;;;;;5053246;28;20104;-69
2021/07/10 09:10:39;;;;;;;6.13;5.18;;;;;;;;;;5051682;28;20120;-71
2021/07/10 09:13:05;;;;;;;8.48;4.80;;;;;;;;;;5051779;28;20473;-68
2021/07/10 09:15:32;;;;;;;9.43;4.72;;;;;;;;;;5053101;28;20032;-70
2021/07/10 09:17:58;;;;;;;7.93;4.65;;;;;;;;;;5053037;28;20025;-70
2021/07/10 09:20:26;;;;;;;4.90;4.45;;;;;;;;;;5051685;28;20544;-70
2021/07/10 09:22:53;;;;;;;6.22;4.43;;;;;;;;;;5052580;28;20400;-70
2021/07/10 09:25:29;;;;;;;7.88;4.10;;;;;;;;;;5052866;28;20032;-70
2021/07/10 09:27:56;;;;;;;11.98;4.88;;;;;;;;;;5052940;28;20017;-69
2021/07/10 09:30:36;;;;;;;10.13;4.13;;;;;;;;;;5051020;28;20044;-68
2021/07/10 09:33:16;;;;;;;7.22;4.38;;;;;;;;;;5031439;28;20037;-70
2021/07/10 09:35:56;;;;;;;7.75;3.97;;;;;;;;;;5032749;28;20037;-70
2021/07/10 09:38:24;;;;;;;8.43;4.32;;;;;;;;;;5032932;28;20021;-71
2021/07/10 09:41:10;;;;;;;11.15;4.47;;;;;;;;;;5032905;28;20373;-70
2021/07/10 09:43:37;;;;;;;5.38;3.42;;;;;;;;;;5032236;28;20408;-70
2021/07/10 09:46:05;;;;;;;7.78;4.50;;;;;;;;;;5033633;28;20052;-68
2021/07/10 09:48:35;;;;;;;6.32;4.07;;;;;;;;;;5036177;28;20041;-70
2021/07/10 09:51:20;;;;;;;7.38;3.88;;;;;;;;;;5035094;28;20455;-66
2021/07/10 09:54:06;;;;;;;6.78;4.25;;;;;;;;;;5036180;28;20512;-67
2021/07/10 09:56:37;;;;;;;4.75;4.30;;;;;;;;;;5036449;28;20025;-65
2021/07/10 09:59:20;;;;;;;6.60;4.43;;;;;;;;;;5034968;28;20038;-68
2021/07/10 10:01:47;;;;;;;6.70;3.60;;;;;;;;;;5034631;28;20025;-69
2021/07/10 10:04:24;;;;;;;7.65;3.95;;;;;;;;;;5036606;28;20029;-70
2021/07/10 10:06:50;;;;;;;4.68;3.63;;;;;;;;;;5036543;28;20018;-70
2021/07/10 10:09:24;;;;;;;3.85;2.22;;;;;;;;;;5036688;28;20025;-69
2021/07/10 10:12:00;;;;;;;7.45;2.25;;;;;;;;;;5036031;28;20425;-68
2021/07/10 10:14:28;;;;;;;2.47;2.28;;;;;;;;;;5034695;28;20029;-67
2021/07/10 10:16:55;;;;;;;5.38;2.53;;;;;;;;;;5034460;28;20087;-67
2021/07/10 10:19:22;;;;;;;9.18;2.70;;;;;;;;;;5036144;28;20025;-69
2021/07/10 10:21:50;;;;;;;2.47;2.08;;;;;;;;;;5034799;28;20125;-68
2021/07/10 10:24:17;;;;;;;3.22;2.20;;;;;;;;;;5036198;28;20022;-68
2021/07/10 10:26:44;;;;;;;4.75;1.92;;;;;;;;;;5036346;28;20409;-70
2021/07/10 10:29:11;;;;;;;3.20;1.80;;;;;;;;;;5034373;28;20469;-69
2021/07/10 10:31:38;;;;;;;4.82;2.28;;;;;;;;;;5035781;28;20159;-68
2021/07/10 10:34:06;;;;;;;3.63;2.17;;;;;;;;;;5035615;28;20045;-68
2021/07/10 10:36:34;;;;;;;9.55;1.92;;;;;;;;;;5036892;28;20044;-67
2021/07/10 10:39:01;;;;;;;4.53;1.77;;;;;;;;;;5036104;28;20026;-65
2021/07/10 10:41:27;;;;;;;4.85;1.75;;;;;;;;;;5035987;28;20059;-71
2021/07/10 10:43:55;;;;;;;4.38;2.05;;;;;;;;;;5035958;28;20029;-66
2021/07/10 10:46:25;;;;;;;3.80;1.95;;;;;;;;;;5035936;28;20026;-68
2021/07/10 10:48:52;;;;;;;5.75;2.17;;;;;;;;;;5033938;28;20049;-68
2021/07/10 10:51:35;;;;;;;5.75;2.17;;;;;;;;;;5035768;28;20025;-68
2021/07/10 10:54:20;;;;;;;4.07;1.75;;;;;;;;;;5035815;28;20022;-66
2021/07/10 10:56:46;;;;;;;3.88;1.98;;;;;;;;;;5035720;28;20060;-67
2021/07/10 10:59:31;;;;;;;2.83;2.33;;;;;;;;;;5034903;28;20029;-67
2021/07/10 11:01:57;;;;;;;4.47;1.98;;;;;;;;;;5035606;28;20027;-68
2021/07/10 11:04:43;;;;;;;9.63;2.10;;;;;;;;;;5047331;28;20025;-68
2021/07/10 11:07:25;;;;;;;5.88;2.38;;;;;;;;;;5054893;28;20491;-69
2021/07/10 11:10:03;;;;;;;5.57;1.90;;;;;;;;;;5054035;28;20060;-70
2021/07/10 11:12:47;;;;;;;2.92;2.10;;;;;;;;;;5055373;28;20021;-67
2021/07/10 11:15:30;;;;;;;8.90;2.45;;;;;;;;;;5055325;28;20473;-66
2021/07/10 11:18:06;;;;;;;6.40;1.98;;;;;;;;;;5055318;28;20394;-66
2021/07/10 11:20:42;;;;;;;3.33;2.35;;;;;;;;;;5054197;28;20434;-69
2021/07/10 11:23:09;;;;;;;6.90;2.53;;;;;;;;;;5055204;28;20108;-67
2021/07/10 11:26:06;;;;;;;4.88;2.30;;;;;;;;;;5055115;28;20059;-68
2021/07/10 11:28:32;;;;;;;6.00;2.15;;;;;;;;;;5042338;28;20464;-70
2021/07/10 11:31:04;;;;;;;6.88;2.97;;;;;;;;;;5054998;28;20036;-68
2021/07/10 11:33:49;;;;;;;5.50;2.53;;;;;;;;;;5054901;28;20437;-67
2021/07/10 11:36:34;;;;;;;5.75;2.35;;;;;;;;;;5053551;28;20048;-67
2021/07/10 11:39:01;;;;;;;4.63;2.60;;;;;;;;;;5054932;28;20040;-70
2021/07/10 11:41:28;;;;;;;6.13;2.60;;;;;;;;;;5054570;28;20027;-69
2021/07/10 11:44:11;;;;;;;4.63;2.38;;;;;;;;;;5054775;28;20021;-68
2021/07/10 11:46:56;;;;;;;2.97;2.70;;;;;;;;;;5053495;28;20033;-67
2021/07/10 11:49:40;;;;;;;3.67;2.50;;;;;;;;;;5054502;28;20392;-68
2021/07/10 11:52:06;;;;;;;7.25;2.45;;;;;;;;;;5054629;28;20017;-69
2021/07/10 11:54:33;;;;;;;5.45;2.35;;;;;;;;;;5054625;28;20017;-68
2021/07/10 11:56:59;;;;;;;5.78;2.30;;;;;;;;;;5054473;28;20025;-70
2021/07/10 11:59:25;;;;;;;5.97;2.50;;;;;;;;;;5053151;28;20060;-68
2021/07/10 12:01:52;;;;;;;6.25;2.33;;;;;;;;;;5054049;28;20104;-66
2021/07/10 12:04:18;;;;;;;3.90;2.35;;;;;;;;;;5053531;28;20036;-66
2021/07/10 12:06:44;;;;;;;4.78;2.47;;;;;;;;;;5054557;28;20083;-69
2021/07/10 12:09:10;;;;;;;5.07;2.67;;;;;;;;;;5052684;28;20037;-66
2021/07/10 12:11:36;;;;;;;9.13;2.70;;;;;;;;;;5053504;28;20103;-69
2021/07/10 12:14:08;;;;;;;3.42;2.25;;;36.10;57.30;;;;;;5052647;28;20572;-70
2021/07/10 12:16:35;;;;;;;4.93;2.38;;;;;;;;;;5054149;28;20074;-70
2021/07/10 12:19:01;;;;;;;3.17;2.53;;;;;;;;;;5052804;28;20202;-69
2021/07/10 12:21:27;;;;;;;4.25;2.50;;;35.40;60.50;;;;;;5052682;28;20032;-70
2021/07/10 12:23:55;;;;;;;2.63;2.42;;;35.40;60.40;;;;;;5053722;28;20021;-68
2021/07/10 12:26:24;;;;;;;3.95;2.28;;;36.30;58.90;;;;;;5053812;28;20525;-70
2021/07/10 12:28:55;;;;;;;10.60;3.42;;;37.00;57.40;;;;;;5052242;28;20025;-70
2021/07/10 12:31:35;;;;;;;8.02;2.97;;;37.70;56.90;;;;;;5052599;28;20025;-71
2021/07/10 12:34:04;;;;;;;3.92;2.60;;;38.10;53.70;;;;;;5053863;28;20587;-70
2021/07/10 12:36:36;;;;;;;6.95;2.83;;;38.40;52.20;;;;;;5053738;28;20074;-70
2021/07/10 12:39:10;;;;;;;7.72;2.30;;;38.50;54.20;;;;;;5053825;28;20029;-70
2021/07/10 12:41:44;;;;;;;5.70;2.30;;;38.50;51.80;;;;;;5053435;28;20025;-69
2021/07/10 12:44:15;;;;;;;5.43;2.47;;;38.90;52.50;;;;;;5053921;28;20457;-71
2021/07/10 12:47:05;;;;;;;4.20;2.63;;;39.00;52.30;;;;;;5053636;28;20043;-69
2021/07/10 12:49:33;;;;;;;6.35;2.67;;;;;;;;;;5053388;28;20040;-70
2021/07/10 12:51:59;;;;;;;6.05;3.50;;;;;;;;;;5051929;28;20063;-68
2021/07/10 12:54:30;;;;;;;5.00;2.72;;;;;;;;;;5053414;28;20025;-69
2021/07/10 12:56:57;;;;;;;6.68;3.13;;;;;;;;;;5053165;28;20080;-70
2021/07/10 12:59:23;;;;;;;11.15;3.80;;;;;;;;;;5053356;28;20025;-70
2021/07/10 13:01:50;;;;;;;4.35;2.80;;;40.00;50.00;;;;;;5045954;28;20057;-68
2021/07/10 13:04:16;;;;;;;5.55;3.30;;;40.30;49.10;;;;;;5042945;28;20029;-70
2021/07/10 13:06:43;;;;;;;5.20;2.83;;;;;;;;;;5052887;28;20029;-68
2021/07/10 13:09:10;;;;;;;5.28;2.78;;;;;;;;;;5051822;28;20025;-68
2021/07/10 13:11:51;;;;;;;3.97;2.95;;;;;;;;;;5053341;28;20028;-70
2021/07/10 13:14:21;;;;;;;3.45;2.92;;;;;;;;;;5053115;28;20461;-70
2021/07/10 13:16:47;;;;;;;5.00;2.80;;;;;;;;;;5053109;28;20104;-69
2021/07/10 13:19:14;;;;;;;6.53;3.10;;;;;;;;;;5051756;28;20032;-68
2021/07/10 13:21:40;;;;;;;3.25;2.45;;;;;;;;;;5052383;28;20055;-69
2021/07/10 13:24:12;;;;;;;3.58;2.33;;;;;;;;;;5052743;28;20469;-69
2021/07/10 13:26:43;;;;;;;2.97;2.65;;;;;;;;;;5052961;28;20048;-68
2021/07/10 13:29:13;;;;;;;7.68;2.55;;;;;;;;;;5052881;28;20032;-69
2021/07/10 13:31:41;;;;;;;5.65;2.90;;;;;;;;;;5051756;28;20438;-70
2021/07/10 13:34:09;;;;;;;3.25;2.45;;;;;;;;;;5052931;28;20104;-70
2021/07/10 13:36:41;;;;;;;6.45;2.97;;;;;;;;;;5052628;28;20512;-69
2021/07/10 13:39:10;;;;;;;4.90;2.80;;;;;;;;;;5051616;28;20127;-69
2021/07/10 13:41:37;;;;;;;4.05;2.35;;;;;;;;;;5051542;28;20028;-70
2021/07/10 13:44:05;;;;;;;2.67;2.42;;;;;;;;;;5052800;28;20437;-68
2021/07/10 13:46:36;;;;;;;6.90;2.95;;;;;;;;;;5051986;28;20515;-68
2021/07/10 13:49:22;;;;;;;3.10;2.25;;;;;;;;;;5051997;28;20111;-68
2021/07/10 13:51:53;;;;;;;7.68;2.75;;;;;;;;;;5051110;28;20531;-71
2021/07/10 13:54:25;;;;;;;4.05;2.60;;;;;;;;;;5051800;28;20075;-69
2021/07/10 13:57:27;;;;;;;3.53;2.47;;;;;;;;;;5050757;28;20021;-68
2021/07/10 13:59:53;;;;;;;8.35;2.88;;;;;;;;;;4990909;28;20030;-68
2021/07/10 14:02:19;;;;;;;4.70;2.53;;;;;;;;;;4990916;28;20085;-68
2021/07/10 14:04:56;;;;;;;5.75;2.70;;;;;;;;;;4991308;28;20031;-70
2021/07/10 14:07:22;;;;;;;4.68;2.45;;;;;;;;;;4991033;28;20043;-69
2021/07/10 14:09:49;;;;;;;5.18;2.38;;;;;;;;;;4990879;28;20542;-68
2021/07/10 14:12:15;;;;;;;3.35;2.75;;;;;;;;;;4990881;28;20113;-68
2021/07/10 14:14:41;;;;;;;4.30;2.60;;;;;;;;;;4990848;28;20153;-68
2021/07/10 14:17:07;;;;;;;5.20;2.58;;;;;;;;;;4990915;28;20161;-70
2021/07/10 14:19:34;;;;;;;3.72;2.60;;;;;;;;;;4990796;28;20054;-68
2021/07/10 14:22:00;;;;;;;2.72;2.40;;;;;;;;;;4991099;28;20050;-70
2021/07/10 14:24:26;;;;;;;2.55;2.33;;;;;;;;;;4990857;28;20169;-67
2021/07/10 14:26:52;;;;;;;4.53;2.03;;;;;;;;;;4990782;28;20038;-69
2021/07/10 14:29:18;;;;;;;5.45;2.40;;;;;;;;;;4990692;28;20527;-68
2021/07/10 14:31:45;;;;;;;3.53;2.50;;;;;;;;;;4990715;28;20026;-68